Time;durP1;ratioP1;P1;durP2;ratioP2;P2;SDS_P1;SDS_P2;PMS_P1;PMS_P2;Temp;Humidity;BMP_temperature;BMP_pressure;BME280_temperature;BME280_humidity;BME280_pressure;Samples;Min_cycle;Max_cycle;Signal;HPM_P1;HPM_P2
2021/12/26 00:01:05;;;;;;;4.38;1.30;;;-6.00;99.90;;;;;;4841439;29;20037;-76
2021/12/26 00:03:33;;;;;;;4.00;1.30;;;-6.00;99.90;;;;;;4826024;29;20052;-76
2021/12/26 00:06:05;;;;;;;3.00;1.40;;;-6.00;99.90;;;;;;4844447;29;20034;-76
2021/12/26 00:08:32;;;;;;;3.22;1.33;;;-6.00;99.90;;;;;;4830814;29;20585;-76
2021/12/26 00:10:58;;;;;;;1.95;0.95;;;-6.10;99.90;;;;;;4818621;29;20040;-76
2021/12/26 00:13:24;;;;;;;3.63;1.50;;;-6.00;99.90;;;;;;4830752;29;20550;-76
2021/12/26 00:15:50;;;;;;;6.20;1.50;;;-6.00;99.90;;;;;;4826132;29;20447;-76
2021/12/26 00:18:16;;;;;;;4.60;1.67;;;-6.00;99.90;;;;;;4841137;29;20425;-76
2021/12/26 00:20:42;;;;;;;4.85;1.73;;;-6.10;99.90;;;;;;4823262;29;20062;-76
2021/12/26 00:23:08;;;;;;;2.65;0.90;;;-6.00;99.90;;;;;;4824591;29;20041;-76
2021/12/26 00:25:34;;;;;;;2.60;1.23;;;-6.00;99.90;;;;;;4838947;29;20432;-75
2021/12/26 00:28:01;;;;;;;3.40;1.20;;;-6.00;99.90;;;;;;4825192;29;20049;-76
2021/12/26 00:30:27;;;;;;;4.60;1.20;;;-6.00;99.90;;;;;;4840203;29;20042;-76
2021/12/26 00:32:53;;;;;;;4.23;0.90;;;-6.00;99.90;;;;;;4825540;29;20133;-76
2021/12/26 00:35:22;;;;;;;3.33;1.25;;;-5.90;99.90;;;;;;4824685;29;20048;-76
2021/12/26 00:37:49;;;;;;;5.75;1.10;;;-5.90;99.90;;;;;;4839136;29;20077;-76
2021/12/26 00:40:19;;;;;;;2.22;0.90;;;-5.90;99.90;;;;;;4805368;29;20081;-76
2021/12/26 00:42:46;;;;;;;2.15;1.05;;;-5.90;99.90;;;;;;4838508;29;20148;-76
2021/12/26 00:45:12;;;;;;;3.00;1.02;;;-5.80;99.90;;;;;;4809926;29;20502;-76
2021/12/26 00:47:39;;;;;;;3.35;1.15;;;-5.90;99.90;;;;;;4824381;29;20112;-76
2021/12/26 00:50:09;;;;;;;3.13;0.93;;;-5.90;99.90;;;;;;4842641;29;20520;-76
2021/12/26 00:52:35;;;;;;;4.93;1.00;;;-5.90;99.90;;;;;;4843447;29;20053;-75
2021/12/26 00:55:01;;;;;;;2.00;0.93;;;-6.00;99.90;;;;;;4843897;29;20056;-76
2021/12/26 00:57:27;;;;;;;3.23;1.10;;;-6.00;99.90;;;;;;4844310;29;20402;-76
2021/12/26 00:59:52;;;;;;;2.07;0.97;;;-6.00;99.90;;;;;;4812118;29;20102;-76
2021/12/26 01:02:18;;;;;;;2.80;1.10;;;-6.00;99.90;;;;;;4798611;29;20072;-76
2021/12/26 01:04:44;;;;;;;1.83;0.73;;;-6.00;99.90;;;;;;4828768;29;20060;-75
2021/12/26 01:07:26;;;;;;;7.13;1.40;;;-6.00;99.90;;;;;;4828249;29;20046;-77
2021/12/26 01:09:53;;;;;;;2.38;1.00;;;-6.10;99.90;;;;;;4815794;29;20740;-75
2021/12/26 01:12:19;;;;;;;3.60;1.13;;;-6.10;99.90;;;;;;4826560;29;20076;-76
2021/12/26 01:14:53;;;;;;;3.08;1.10;;;-6.10;99.90;;;;;;4843642;29;20045;-76
2021/12/26 01:17:22;;;;;;;3.67;1.20;;;-6.00;99.90;;;;;;4843965;29;20120;-76
2021/12/26 01:19:52;;;;;;;2.75;0.80;;;-6.10;99.90;;;;;;4843047;29;20050;-76
2021/12/26 01:22:18;;;;;;;3.63;1.00;;;-6.10;99.90;;;;;;4857556;29;20045;-75
2021/12/26 01:24:45;;;;;;;1.95;1.05;;;-6.10;99.90;;;;;;4842759;29;20129;-75
2021/12/26 01:27:11;;;;;;;3.90;1.10;;;-6.10;99.90;;;;;;4827881;29;20041;-76
2021/12/26 01:29:38;;;;;;;3.05;1.00;;;-6.10;99.90;;;;;;4807943;29;20042;-76
2021/12/26 01:32:04;;;;;;;3.33;1.23;;;-6.10;99.90;;;;;;4834641;29;20045;-75
2021/12/26 01:34:30;;;;;;;2.63;0.98;;;-6.10;99.90;;;;;;4810350;29;20061;-75
2021/12/26 01:36:56;;;;;;;3.77;1.10;;;-6.10;99.90;;;;;;4810035;29;20050;-75
2021/12/26 01:39:24;;;;;;;2.60;1.08;;;-6.10;99.90;;;;;;4825855;29;20125;-76
2021/12/26 01:41:51;;;;;;;5.47;1.70;;;-6.10;99.90;;;;;;4822318;29;20121;-75
2021/12/26 01:44:18;;;;;;;3.50;1.10;;;-6.10;99.90;;;;;;4824044;29;20050;-75
2021/12/26 01:46:49;;;;;;;3.78;1.27;;;-6.10;99.90;;;;;;4813376;29;20049;-76
2021/12/26 01:49:18;;;;;;;1.60;0.70;;;-6.10;99.90;;;;;;4823905;29;20046;-76
2021/12/26 01:51:46;;;;;;;2.63;0.80;;;-6.10;99.90;;;;;;4824181;29;20076;-76
2021/12/26 01:54:15;;;;;;;3.28;1.20;;;-6.00;99.90;;;;;;4808534;29;20056;-76
2021/12/26 01:56:43;;;;;;;2.47;0.85;;;-6.00;99.90;;;;;;4811649;29;20047;-76
2021/12/26 01:59:11;;;;;;;2.88;0.90;;;-6.00;99.90;;;;;;4820571;29;20581;-75
2021/12/26 02:01:37;;;;;;;1.48;0.70;;;-6.00;99.90;;;;;;4824337;29;20042;-76
2021/12/26 02:04:03;;;;;;;3.40;1.00;;;-5.90;99.90;;;;;;4824079;29;20595;-75
2021/12/26 02:06:30;;;;;;;3.58;1.13;;;-6.00;99.90;;;;;;4810159;29;20046;-75
2021/12/26 02:08:56;;;;;;;2.25;1.00;;;-6.00;99.90;;;;;;4811346;29;20125;-76
2021/12/26 02:11:22;;;;;;;2.90;1.00;;;-6.10;99.90;;;;;;4816044;29;20080;-76
2021/12/26 02:13:47;;;;;;;2.57;0.90;;;-6.10;99.90;;;;;;4795936;29;20077;-75
2021/12/26 02:16:13;;;;;;;2.40;1.10;;;-6.10;99.90;;;;;;4827131;29;20735;-76
2021/12/26 02:18:40;;;;;;;4.43;1.05;;;-6.10;99.90;;;;;;4823797;29;20098;-76
2021/12/26 02:28:46;;;;;;;3.75;1.10;;;-6.40;99.90;;;;;;4815904;29;20141;-76
2021/12/26 02:31:14;;;;;;;1.98;0.65;;;-6.50;99.90;;;;;;4811971;29;20046;-76
2021/12/26 02:33:40;;;;;;;3.25;1.00;;;-6.50;99.90;;;;;;4841726;29;20061;-76
2021/12/26 02:36:06;;;;;;;2.35;0.90;;;-6.40;99.90;;;;;;4826883;29;20106;-75
2021/12/26 02:38:33;;;;;;;3.13;0.80;;;-6.40;99.90;;;;;;4811252;29;20084;-75
2021/12/26 02:40:59;;;;;;;1.65;0.77;;;-6.40;99.90;;;;;;4826145;29;20049;-75
2021/12/26 02:43:28;;;;;;;1.90;0.77;;;-6.40;99.90;;;;;;4811376;29;20101;-75
2021/12/26 02:45:54;;;;;;;2.35;0.90;;;-6.40;99.90;;;;;;4841896;29;20042;-76
2021/12/26 02:48:20;;;;;;;3.33;1.13;;;-6.40;99.90;;;;;;4826281;29;20124;-75
2021/12/26 02:50:47;;;;;;;3.53;1.63;;;-6.30;99.90;;;;;;4820350;29;20046;-76
2021/12/26 02:53:20;;;;;;;2.88;0.90;;;-6.30;99.90;;;;;;4812044;29;20049;-75
2021/12/26 02:55:48;;;;;;;2.75;0.70;;;-6.40;99.90;;;;;;4840877;29;20404;-75
2021/12/26 02:58:14;;;;;;;3.88;1.17;;;-6.40;99.90;;;;;;4825915;29;20052;-75
2021/12/26 03:00:51;;;;;;;2.33;1.00;;;-6.40;99.90;;;;;;4811355;29;20045;-75
2021/12/26 03:03:17;;;;;;;1.73;0.70;;;-6.40;99.90;;;;;;4826744;29;20041;-75
2021/12/26 03:05:45;;;;;;;1.75;0.70;;;-6.40;99.90;;;;;;4811160;29;20041;-75
2021/12/26 03:08:14;;;;;;;5.00;1.40;;;-6.40;99.90;;;;;;4841134;29;20045;-75
2021/12/26 03:10:40;;;;;;;3.25;0.88;;;-6.50;99.90;;;;;;4825545;29;20132;-75
2021/12/26 03:13:10;;;;;;;2.40;0.98;;;-6.50;99.90;;;;;;4840064;29;20136;-75
2021/12/26 03:15:38;;;;;;;2.05;0.80;;;-6.50;99.90;;;;;;4823599;29;20049;-75
2021/12/26 03:18:04;;;;;;;2.28;0.85;;;-6.50;99.90;;;;;;4825918;29;20045;-75
2021/12/26 03:20:33;;;;;;;4.10;1.00;;;-6.50;99.90;;;;;;4827170;29;20053;-76
2021/12/26 03:23:01;;;;;;;2.58;0.70;;;-6.50;99.90;;;;;;4841030;29;20054;-76
2021/12/26 03:25:28;;;;;;;1.98;0.82;;;-6.50;99.90;;;;;;4840606;29;20049;-75
2021/12/26 03:27:55;;;;;;;4.45;1.13;;;-6.50;99.90;;;;;;4825574;29;20050;-75
2021/12/26 03:30:24;;;;;;;3.15;1.15;;;-6.50;99.90;;;;;;4824433;29;20045;-75
2021/12/26 03:32:51;;;;;;;2.13;0.98;;;-6.60;99.90;;;;;;4833739;29;20068;-75
2021/12/26 03:35:19;;;;;;;1.73;0.98;;;-6.60;99.90;;;;;;4841151;29;20500;-76
2021/12/26 03:37:45;;;;;;;2.03;0.93;;;-6.70;99.90;;;;;;4825962;29;20634;-75
2021/12/26 03:40:11;;;;;;;3.58;1.15;;;-6.70;99.90;;;;;;4824981;29;20116;-75
2021/12/26 03:42:37;;;;;;;2.75;0.82;;;-6.70;99.90;;;;;;4825683;29;20049;-75
2021/12/26 03:45:05;;;;;;;2.13;0.80;;;-6.60;99.90;;;;;;4840401;29;20037;-75
2021/12/26 03:47:32;;;;;;;1.40;0.73;;;-6.60;99.90;;;;;;4825994;29;20056;-76
2021/12/26 03:49:58;;;;;;;3.42;1.00;;;-6.60;99.90;;;;;;4825177;29;20049;-75
2021/12/26 03:52:25;;;;;;;3.67;1.00;;;-6.60;99.90;;;;;;4825570;29;20041;-76
2021/12/26 03:54:52;;;;;;;2.95;0.90;;;-6.60;99.90;;;;;;4809930;29;20042;-75
2021/12/26 03:57:18;;;;;;;2.20;0.82;;;-6.60;99.90;;;;;;4822963;29;20052;-75
2021/12/26 03:59:44;;;;;;;2.30;0.90;;;-6.60;99.90;;;;;;4825227;29;20041;-75
2021/12/26 04:02:10;;;;;;;2.43;0.80;;;-6.60;99.90;;;;;;4807775;29;20046;-76
2021/12/26 04:04:36;;;;;;;3.92;0.82;;;-6.60;99.90;;;;;;4824829;29;20109;-75
2021/12/26 04:07:02;;;;;;;3.92;0.95;;;-6.60;99.90;;;;;;4825846;29;20072;-75
2021/12/26 04:09:28;;;;;;;1.83;0.77;;;-6.60;99.90;;;;;;4793979;29;20071;-75
2021/12/26 04:11:53;;;;;;;3.17;1.00;;;-6.50;99.90;;;;;;4810272;29;20041;-75
2021/12/26 04:14:19;;;;;;;2.63;1.03;;;-6.50;99.90;;;;;;4810321;29;20290;-75
2021/12/26 04:16:45;;;;;;;1.83;0.90;;;-6.50;99.90;;;;;;4810438;29;20310;-75
2021/12/26 04:19:11;;;;;;;3.07;0.80;;;-6.50;99.90;;;;;;4836972;29;20042;-75
2021/12/26 04:21:37;;;;;;;3.13;1.00;;;-6.50;99.90;;;;;;4824837;29;20113;-75
2021/12/26 04:24:04;;;;;;;1.63;0.83;;;-6.50;99.90;;;;;;4809542;29;20073;-76
2021/12/26 04:26:31;;;;;;;1.48;1.00;;;-6.50;99.90;;;;;;4809934;29;20045;-75
2021/12/26 04:28:56;;;;;;;2.72;1.33;;;-6.50;99.90;;;;;;4821678;29;20450;-75
2021/12/26 04:31:22;;;;;;;2.03;0.87;;;-6.50;99.90;;;;;;4833565;29;20073;-75
2021/12/26 04:33:50;;;;;;;1.90;0.88;;;-6.60;99.90;;;;;;4809925;29;20058;-75
2021/12/26 04:36:17;;;;;;;3.05;0.90;;;-6.60;99.90;;;;;;4840569;29;20113;-75
2021/12/26 04:38:43;;;;;;;1.38;0.75;;;-6.60;99.90;;;;;;4809259;29;20049;-75
2021/12/26 04:41:11;;;;;;;3.38;1.10;;;-6.70;99.90;;;;;;4807974;29;20045;-75
2021/12/26 04:43:37;;;;;;;2.00;0.80;;;-6.70;99.90;;;;;;4824455;29;20454;-75
2021/12/26 04:46:05;;;;;;;3.13;0.88;;;-6.70;99.90;;;;;;4792781;29;20045;-75
2021/12/26 04:48:43;;;;;;;2.72;1.00;;;-6.70;99.90;;;;;;4839985;29;20053;-75
2021/12/26 04:51:10;;;;;;;2.90;1.00;;;-6.80;99.90;;;;;;4839166;29;20046;-75
2021/12/26 04:53:38;;;;;;;2.95;0.55;;;-6.80;99.90;;;;;;4834667;29;20521;-75
2021/12/26 04:56:05;;;;;;;5.05;1.02;;;-6.80;99.90;;;;;;4840740;29;20049;-75
2021/12/26 04:58:31;;;;;;;2.10;0.80;;;-6.80;99.90;;;;;;4824493;29;20060;-75
2021/12/26 05:00:57;;;;;;;2.30;0.60;;;-6.80;99.90;;;;;;4806513;29;20073;-75
2021/12/26 05:03:23;;;;;;;1.80;0.70;;;-6.90;99.90;;;;;;4816864;29;20041;-75
2021/12/26 05:05:49;;;;;;;3.00;0.88;;;-6.80;99.90;;;;;;4824626;29;20091;-75
2021/12/26 05:08:15;;;;;;;1.93;0.80;;;-6.80;99.90;;;;;;4824540;29;20080;-75
2021/12/26 05:10:41;;;;;;;2.92;0.80;;;-6.90;99.90;;;;;;4823652;29;20045;-75
2021/12/26 05:13:07;;;;;;;3.83;1.03;;;-6.90;99.90;;;;;;4809355;29;20052;-75
2021/12/26 05:15:33;;;;;;;1.77;1.23;;;-6.90;99.90;;;;;;4809546;29;20554;-75
2021/12/26 05:23:08;;;;;;;2.80;1.63;;;-6.80;99.90;;;;;;4870643;29;20057;-73
2021/12/26 05:25:34;;;;;;;7.17;2.83;;;-6.90;99.90;;;;;;4814865;29;20605;-73
2021/12/26 05:28:00;;;;;;;3.10;0.70;;;-6.80;99.90;;;;;;4825744;29;20041;-73
2021/12/26 05:30:27;;;;;;;5.23;0.80;;;-6.80;99.90;;;;;;4825672;29;20867;-73
2021/12/26 05:32:53;;;;;;;5.30;1.00;;;-6.70;99.90;;;;;;4826674;29;20085;-73
2021/12/26 05:35:19;;;;;;;4.13;0.90;;;-6.70;99.90;;;;;;4828524;29;20070;-73
2021/12/26 05:37:46;;;;;;;3.55;0.98;;;-6.70;99.90;;;;;;4838118;29;20052;-73
2021/12/26 05:40:13;;;;;;;3.33;0.80;;;-6.60;99.90;;;;;;4843868;29;20044;-73
2021/12/26 05:42:39;;;;;;;3.20;0.98;;;-6.60;99.90;;;;;;4861252;29;20587;-73
2021/12/26 05:45:06;;;;;;;2.03;0.82;;;-6.60;99.90;;;;;;4845139;29;20045;-73
2021/12/26 05:47:32;;;;;;;3.45;1.10;;;-6.60;99.90;;;;;;4815210;29;20504;-73
2021/12/26 05:49:59;;;;;;;2.77;1.03;;;-6.60;99.90;;;;;;4844386;29;20033;-73
2021/12/26 05:54:51;;;;;;;2.50;0.87;;;-6.50;99.90;;;;;;4923347;23;20067;-76
2021/12/26 05:57:17;;;;;;;4.13;1.13;;;-6.50;99.90;;;;;;4868929;29;20121;-76
2021/12/26 05:59:43;;;;;;;4.23;0.90;;;-6.50;99.90;;;;;;4850041;29;20079;-76
2021/12/26 06:02:09;;;;;;;2.72;1.00;;;-6.60;99.90;;;;;;4882544;29;20493;-77
2021/12/26 06:04:35;;;;;;;3.70;1.20;;;-6.60;99.90;;;;;;4850802;29;20096;-76
2021/12/26 06:07:01;;;;;;;3.33;0.82;;;-6.50;99.90;;;;;;4862987;29;20531;-76
2021/12/26 06:09:26;;;;;;;3.37;0.90;;;-6.50;99.90;;;;;;4847277;29;20033;-76
2021/12/26 06:11:52;;;;;;;3.33;1.20;;;-6.50;99.90;;;;;;4878627;29;20080;-76
2021/12/26 06:14:18;;;;;;;3.20;1.07;;;-6.50;99.90;;;;;;4845626;29;20045;-76
2021/12/26 06:16:44;;;;;;;2.50;1.03;;;-6.50;99.90;;;;;;4862652;29;20083;-76
2021/12/26 06:19:10;;;;;;;2.47;1.00;;;-6.50;99.90;;;;;;4846260;29;20485;-76
2021/12/26 06:21:35;;;;;;;2.05;1.00;;;-6.50;99.90;;;;;;4862400;29;20040;-76
2021/12/26 06:24:02;;;;;;;4.93;1.30;;;-6.50;99.90;;;;;;4861450;29;20148;-76
2021/12/26 06:26:29;;;;;;;2.72;1.50;;;-6.50;99.90;;;;;;4850177;29;20103;-76
2021/12/26 06:28:55;;;;;;;3.03;1.23;;;-6.50;99.90;;;;;;4867502;29;20048;-76
2021/12/26 06:31:21;;;;;;;2.00;0.90;;;-6.60;99.90;;;;;;4862355;29;20073;-76
2021/12/26 06:33:47;;;;;;;1.70;1.10;;;-6.50;99.90;;;;;;4861403;29;20037;-77
2021/12/26 06:36:15;;;;;;;4.85;1.08;;;-6.50;99.90;;;;;;4870342;29;20055;-77
2021/12/26 06:38:43;;;;;;;2.15;0.93;;;-6.50;99.90;;;;;;4861450;29;20615;-76
2021/12/26 06:41:12;;;;;;;3.85;1.20;;;-6.50;99.90;;;;;;4862323;29;20489;-76
2021/12/26 06:43:38;;;;;;;2.58;1.30;;;-6.50;99.90;;;;;;4877193;29;20099;-76
2021/12/26 06:46:04;;;;;;;4.28;1.58;;;-6.50;99.90;;;;;;4842184;29;20048;-76
2021/12/26 06:48:31;;;;;;;2.80;1.30;;;-6.40;99.90;;;;;;4874277;29;20048;-76
2021/12/26 06:50:56;;;;;;;3.55;1.30;;;-6.40;99.90;;;;;;4846053;29;20187;-76
2021/12/26 06:53:22;;;;;;;4.20;1.33;;;-6.50;99.90;;;;;;4873569;29;20364;-76
2021/12/26 06:55:48;;;;;;;4.00;1.15;;;-6.40;99.90;;;;;;4873712;29;20091;-76
2021/12/26 06:58:15;;;;;;;2.63;1.03;;;-6.40;99.90;;;;;;4859441;29;20048;-76
2021/12/26 07:00:42;;;;;;;2.47;1.13;;;-6.40;99.90;;;;;;4842485;29;20564;-76
2021/12/26 07:03:08;;;;;;;3.38;1.40;;;-6.40;99.90;;;;;;4867282;29;20040;-76
2021/12/26 07:05:34;;;;;;;4.38;1.85;;;-6.40;99.90;;;;;;4856655;29;20410;-76
2021/12/26 07:08:00;;;;;;;4.53;1.57;;;-6.40;99.90;;;;;;4858487;29;20052;-76
2021/12/26 07:10:26;;;;;;;3.67;1.30;;;-6.40;99.90;;;;;;4842973;29;20529;-76
2021/12/26 07:12:52;;;;;;;2.37;1.37;;;-6.40;99.90;;;;;;4858472;29;20420;-76
2021/12/26 07:15:17;;;;;;;1.63;1.03;;;-6.40;99.90;;;;;;4898598;24;20415;-76
2021/12/26 07:17:43;;;;;;;4.00;1.40;;;-6.40;99.90;;;;;;4809644;29;20638;-76
2021/12/26 07:20:11;;;;;;;7.60;2.00;;;-6.40;99.90;;;;;;4811854;29;20053;-76
2021/12/26 07:22:38;;;;;;;2.95;1.17;;;-6.40;99.90;;;;;;5079827;24;20118;-73
2021/12/26 07:25:05;;;;;;;2.30;1.27;;;-6.40;99.90;;;;;;4834432;29;20065;-75
2021/12/26 07:27:31;;;;;;;3.20;1.30;;;-6.30;99.90;;;;;;4826554;29;20069;-76
2021/12/26 07:29:58;;;;;;;4.60;1.80;;;-6.40;99.90;;;;;;4840666;29;20042;-76
2021/12/26 07:32:25;;;;;;;3.30;1.38;;;-6.40;99.90;;;;;;4823968;29;20056;-75
2021/12/26 07:34:51;;;;;;;4.43;1.65;;;-6.40;99.90;;;;;;4822759;29;20041;-75
2021/12/26 07:37:17;;;;;;;4.88;1.45;;;-6.40;99.90;;;;;;4840912;29;20084;-75
2021/12/26 07:39:43;;;;;;;2.77;1.30;;;-6.40;99.90;;;;;;4811380;29;20865;-76
2021/12/26 07:42:09;;;;;;;6.37;1.97;;;-6.40;99.90;;;;;;4827628;29;20040;-76
2021/12/26 07:44:35;;;;;;;3.45;1.40;;;-6.40;99.90;;;;;;4811873;29;20318;-76
2021/12/26 07:47:01;;;;;;;5.82;1.45;;;-6.40;99.90;;;;;;4843885;29;20105;-76
2021/12/26 07:49:27;;;;;;;2.63;1.40;;;-6.50;99.90;;;;;;4810513;29;20038;-76
2021/12/26 07:51:54;;;;;;;3.28;1.25;;;-6.50;99.90;;;;;;4822442;29;20293;-76
2021/12/26 07:54:23;;;;;;;3.45;1.98;;;-6.50;99.90;;;;;;4828989;29;20048;-76
2021/12/26 07:56:49;;;;;;;4.97;1.95;;;-6.50;99.90;;;;;;4825961;29;20049;-76
2021/12/26 07:59:16;;;;;;;3.90;1.63;;;-6.50;99.90;;;;;;4843935;29;20045;-76
2021/12/26 08:01:42;;;;;;;5.13;1.77;;;-6.40;99.90;;;;;;4832356;29;20049;-76
2021/12/26 08:04:10;;;;;;;5.65;1.70;;;-6.40;99.90;;;;;;4819515;29;20124;-76
2021/12/26 08:06:36;;;;;;;4.20;2.10;;;-6.40;99.90;;;;;;4835731;29;20141;-76
2021/12/26 08:09:02;;;;;;;4.67;1.77;;;-6.40;99.90;;;;;;4827271;29;20077;-76
2021/12/26 08:11:28;;;;;;;5.18;1.63;;;-6.40;99.90;;;;;;4847719;29;20308;-76
2021/12/26 08:13:54;;;;;;;3.97;1.77;;;-6.40;99.90;;;;;;4809741;29;20042;-76
2021/12/26 08:16:19;;;;;;;3.37;1.83;;;-6.40;99.90;;;;;;4830132;29;20084;-76
2021/12/26 08:18:45;;;;;;;6.43;2.10;;;-6.40;99.90;;;;;;4833423;29;20124;-76
2021/12/26 08:21:11;;;;;;;5.03;2.13;;;-6.40;99.90;;;;;;4802835;29;20044;-76
2021/12/26 08:23:37;;;;;;;5.17;2.20;;;-6.40;99.90;;;;;;4814041;29;20075;-76
2021/12/26 08:26:04;;;;;;;4.13;1.90;;;-6.40;99.90;;;;;;4828410;29;20036;-76
2021/12/26 08:28:30;;;;;;;4.30;1.80;;;-6.40;99.90;;;;;;4832227;29;20042;-76
2021/12/26 08:30:56;;;;;;;5.15;1.65;;;-6.30;99.90;;;;;;4814636;29;20501;-76
2021/12/26 08:33:22;;;;;;;5.77;2.20;;;-6.30;99.90;;;;;;4845597;29;20041;-76
2021/12/26 08:35:49;;;;;;;3.97;1.87;;;-6.20;99.90;;;;;;4832112;29;20489;-76
2021/12/26 08:38:16;;;;;;;5.43;2.63;;;-6.20;99.90;;;;;;4815835;29;20049;-76
2021/12/26 08:40:43;;;;;;;6.75;2.33;;;-6.20;99.90;;;;;;4849132;29;20041;-76
2021/12/26 08:43:09;;;;;;;5.35;2.60;;;-6.10;99.90;;;;;;4815296;29;20109;-76
2021/12/26 08:45:37;;;;;;;3.92;2.10;;;-6.10;99.90;;;;;;4846963;29;20039;-76
2021/12/26 08:48:03;;;;;;;5.07;2.38;;;-6.00;99.90;;;;;;4815841;29;20119;-76
2021/12/26 08:50:30;;;;;;;4.50;2.13;;;-5.90;99.90;;;;;;4810157;29;20050;-76
2021/12/26 08:52:56;;;;;;;5.65;2.45;;;-5.70;99.90;;;;;;4829152;29;20046;-76
2021/12/26 08:55:23;;;;;;;5.15;2.33;;;-5.50;99.90;;;;;;4817378;29;20401;-76
2021/12/26 08:57:53;;;;;;;5.45;2.20;;;-5.40;99.90;;;;;;4834248;29;20045;-76
2021/12/26 09:00:21;;;;;;;4.43;2.45;;;-5.40;99.90;;;;;;4832725;29;20101;-76
2021/12/26 09:02:47;;;;;;;5.18;2.28;;;-5.40;99.90;;;;;;4845822;29;20438;-76
2021/12/26 09:05:13;;;;;;;6.40;2.10;;;-5.30;99.90;;;;;;4831070;29;20033;-76
2021/12/26 09:07:39;;;;;;;6.15;2.40;;;-5.30;99.90;;;;;;4843802;29;20396;-75
2021/12/26 09:10:07;;;;;;;6.38;2.97;;;-5.30;99.90;;;;;;4791534;29;20045;-76
2021/12/26 09:12:34;;;;;;;5.60;2.40;;;-5.20;99.90;;;;;;4829420;29;20054;-76
2021/12/26 09:15:00;;;;;;;5.47;2.53;;;-5.20;99.90;;;;;;4831800;29;20079;-76
2021/12/26 09:17:26;;;;;;;6.22;2.75;;;-5.20;99.90;;;;;;4840777;29;20098;-76
2021/12/26 09:19:51;;;;;;;5.33;2.43;;;-5.20;99.90;;;;;;4802005;29;20046;-76
2021/12/26 09:22:17;;;;;;;6.80;3.87;;;-5.10;99.90;;;;;;4833303;29;20284;-76
2021/12/26 09:24:45;;;;;;;6.55;2.63;;;-5.10;99.90;;;;;;4815075;29;20517;-76
2021/12/26 09:27:13;;;;;;;6.43;2.70;;;-5.10;99.90;;;;;;4843769;29;20045;-76
2021/12/26 09:29:39;;;;;;;4.57;2.33;;;-5.10;99.90;;;;;;4823193;29;20132;-76
2021/12/26 09:32:05;;;;;;;5.15;2.78;;;-5.00;99.90;;;;;;4807310;29;20369;-76
2021/12/26 09:34:33;;;;;;;5.90;2.25;;;-5.00;99.90;;;;;;4801549;29;20133;-76
2021/12/26 09:37:01;;;;;;;4.65;2.22;;;-5.00;99.90;;;;;;4815254;29;20045;-76
2021/12/26 09:39:27;;;;;;;7.15;2.42;;;-5.00;99.90;;;;;;4814762;29;20049;-76
2021/12/26 09:41:53;;;;;;;5.95;2.35;;;-4.90;99.90;;;;;;4813715;29;20057;-77
2021/12/26 09:44:20;;;;;;;5.13;2.53;;;-4.80;99.90;;;;;;4822466;29;20096;-76
2021/12/26 09:46:46;;;;;;;4.22;2.40;;;-4.80;99.90;;;;;;4845756;29;20781;-76
2021/12/26 09:49:11;;;;;;;5.70;2.40;;;-4.70;99.90;;;;;;4822858;29;20046;-76
2021/12/26 09:51:37;;;;;;;3.70;2.37;;;-4.70;99.90;;;;;;4829112;29;20824;-76
2021/12/26 09:54:05;;;;;;;5.07;2.37;;;-4.60;99.90;;;;;;4813221;29;20062;-76
2021/12/26 09:56:31;;;;;;;5.00;2.40;;;-4.50;99.90;;;;;;4836793;29;20049;-76
2021/12/26 09:59:14;;;;;;;4.65;2.22;;;-4.40;99.90;;;;;;4820385;29;20154;-76
2021/12/26 10:01:43;;;;;;;3.65;2.00;;;-4.40;99.90;;;;;;4821771;29;20132;-76
2021/12/26 10:04:29;;;;;;;6.40;2.40;;;-4.30;99.90;;;;;;4821767;29;20089;-76
2021/12/26 10:07:14;;;;;;;5.65;2.63;;;-4.20;99.90;;;;;;4817954;29;20045;-76
2021/12/26 10:09:48;;;;;;;4.10;2.05;;;-4.20;99.90;;;;;;4813581;29;20075;-77
2021/12/26 10:12:16;;;;;;;6.85;2.38;;;-4.10;99.90;;;;;;4824698;29;20041;-77
2021/12/26 10:14:48;;;;;;;6.50;2.65;;;-3.90;99.90;;;;;;4820038;29;20046;-76
2021/12/26 10:17:17;;;;;;;4.35;2.47;;;-4.00;99.90;;;;;;4823784;29;20052;-76
2021/12/26 10:19:47;;;;;;;4.45;2.30;;;-3.90;99.90;;;;;;4839780;29;20060;-76
2021/12/26 10:22:16;;;;;;;4.15;2.38;;;-3.80;99.90;;;;;;4817032;29;20105;-76
2021/12/26 10:24:44;;;;;;;5.05;2.20;;;-3.70;99.90;;;;;;4807807;29;20563;-76
2021/12/26 10:27:13;;;;;;;4.45;2.70;;;-3.70;99.90;;;;;;4826018;29;20065;-76
2021/12/26 10:29:47;;;;;;;4.97;2.20;;;-3.60;99.90;;;;;;4818016;29;20102;-76
2021/12/26 10:32:20;;;;;;;4.47;2.42;;;-3.60;99.90;;;;;;4836129;29;20073;-76
2021/12/26 10:34:49;;;;;;;4.28;2.50;;;-3.50;99.90;;;;;;4833689;29;20452;-76
2021/12/26 10:37:22;;;;;;;5.50;2.58;;;-3.50;99.90;;;;;;4829210;29;20184;-76
2021/12/26 10:39:55;;;;;;;4.28;2.53;;;-3.40;99.90;;;;;;4816073;29;21339;-76
2021/12/26 10:42:23;;;;;;;5.05;2.63;;;-3.40;99.90;;;;;;4793459;29;20194;-76
2021/12/26 10:44:54;;;;;;;4.93;2.75;;;-3.30;99.90;;;;;;4812705;29;20108;-76
2021/12/26 10:47:29;;;;;;;4.00;2.80;;;-3.30;99.90;;;;;;4800959;29;20042;-76
2021/12/26 10:50:03;;;;;;;5.38;2.47;;;-3.20;99.90;;;;;;4826605;29;20449;-76
2021/12/26 10:52:51;;;;;;;4.70;2.63;;;-3.20;99.90;;;;;;4820076;29;20053;-76
2021/12/26 10:55:19;;;;;;;6.28;2.80;;;-3.10;99.90;;;;;;4840157;29;20053;-76
2021/12/26 10:57:48;;;;;;;4.55;2.80;;;-3.10;99.90;;;;;;4835502;29;20137;-76
2021/12/26 11:00:26;;;;;;;6.55;3.35;;;-3.00;99.90;;;;;;4827373;29;20053;-76
2021/12/26 11:02:53;;;;;;;4.38;2.47;;;-3.00;99.90;;;;;;4830850;29;20478;-76
2021/12/26 11:05:21;;;;;;;4.07;2.83;;;-2.90;99.90;;;;;;4808710;29;20408;-76
2021/12/26 11:07:51;;;;;;;4.68;3.05;;;-2.80;99.90;;;;;;4824237;29;20102;-77
2021/12/26 11:10:21;;;;;;;5.18;2.75;;;-2.80;99.90;;;;;;4812905;29;20078;-76
2021/12/26 11:12:57;;;;;;;5.00;2.75;;;-2.80;99.90;;;;;;4840967;29;20050;-76
2021/12/26 11:15:26;;;;;;;7.95;3.95;;;-2.70;99.90;;;;;;4814501;29;20064;-76
2021/12/26 11:18:07;;;;;;;6.25;3.25;;;-2.70;99.90;;;;;;4818973;29;20490;-76
2021/12/26 11:20:36;;;;;;;5.10;3.03;;;-2.60;99.90;;;;;;4836247;29;20088;-76
2021/12/26 11:23:09;;;;;;;4.63;2.73;;;-2.60;99.90;;;;;;4795560;29;1316992;-76
2021/12/26 11:25:44;;;;;;;5.70;3.25;;;-2.60;99.90;;;;;;4836664;29;20053;-77
2021/12/26 11:28:11;;;;;;;4.63;2.75;;;-2.50;99.90;;;;;;4821109;29;20057;-77
2021/12/26 11:30:46;;;;;;;5.25;2.75;;;-2.40;99.90;;;;;;4819023;29;20505;-77
2021/12/26 11:33:12;;;;;;;5.55;2.88;;;-2.40;99.90;;;;;;4800147;29;20136;-76
2021/12/26 11:35:40;;;;;;;5.93;3.10;;;-2.30;99.90;;;;;;4811179;29;20049;-76
2021/12/26 11:38:09;;;;;;;6.45;3.22;;;-2.30;99.90;;;;;;4837652;29;20049;-76
2021/12/26 11:40:36;;;;;;;6.78;3.72;;;-2.20;99.90;;;;;;4821838;29;20056;-76
2021/12/26 11:43:39;;;;;;;6.82;3.05;;;-2.20;99.90;;;;;;4822535;29;20109;-76
2021/12/26 11:46:36;;;;;;;9.65;3.35;;;-2.10;99.90;;;;;;4814893;29;20042;-76
2021/12/26 11:49:41;;;;;;;5.75;3.15;;;-2.10;99.90;;;;;;4824445;29;20053;-76
2021/12/26 11:52:26;;;;;;;6.35;3.38;;;-2.10;99.90;;;;;;4824928;29;20053;-76
2021/12/26 11:54:58;;;;;;;4.22;3.03;;;-2.00;99.90;;;;;;4814359;29;20145;-76
2021/12/26 11:57:45;;;;;;;6.20;3.30;;;-2.00;99.90;;;;;;4812963;29;20409;-76
2021/12/26 12:00:18;;;;;;;5.20;3.05;;;-1.90;99.90;;;;;;4838292;29;20045;-76
2021/12/26 12:02:48;;;;;;;5.25;3.63;;;-1.90;99.90;;;;;;4814326;29;20058;-77
2021/12/26 12:05:21;;;;;;;6.60;3.90;;;-1.80;99.90;;;;;;4820740;29;20041;-77
2021/12/26 12:07:49;;;;;;;6.60;3.33;;;-1.80;99.90;;;;;;4818669;29;20049;-77
2021/12/26 12:10:34;;;;;;;4.70;3.17;;;-1.80;99.90;;;;;;4821288;29;20116;-77
2021/12/26 12:13:00;;;;;;;5.13;3.40;;;-1.70;99.90;;;;;;4821598;29;20053;-77
2021/12/26 12:15:41;;;;;;;6.70;3.28;;;-1.70;99.90;;;;;;4835114;29;20041;-77
2021/12/26 12:18:13;;;;;;;5.18;3.20;;;-1.70;99.90;;;;;;4835774;29;20136;-76
2021/12/26 12:20:39;;;;;;;7.50;3.97;;;-1.70;99.90;;;;;;4820483;29;20081;-76
2021/12/26 12:23:08;;;;;;;6.45;3.33;;;-1.60;99.90;;;;;;4802990;29;20058;-77
2021/12/26 12:25:34;;;;;;;7.53;3.42;;;-1.60;99.90;;;;;;4821923;29;20053;-77
2021/12/26 12:28:24;;;;;;;6.10;3.23;;;-1.50;99.90;;;;;;4816885;29;20414;-77
2021/12/26 12:30:56;;;;;;;6.30;3.60;;;-1.50;99.90;;;;;;4813305;29;20049;-76
2021/12/26 12:33:31;;;;;;;6.07;3.45;;;-1.60;99.90;;;;;;4815387;29;20045;-76
2021/12/26 12:36:25;;;;;;;5.88;3.28;;;-1.50;99.90;;;;;;4833303;29;20050;-76
2021/12/26 12:38:51;;;;;;;5.25;3.60;;;-1.50;99.90;;;;;;4807464;29;20049;-76
2021/12/26 12:41:39;;;;;;;7.28;3.70;;;-1.50;99.90;;;;;;4791703;29;20042;-76
2021/12/26 12:44:22;;;;;;;6.55;3.45;;;-1.40;99.90;;;;;;4834996;29;20069;-76
2021/12/26 12:47:18;;;;;;;9.13;3.90;;;-1.40;99.90;;;;;;4817006;29;20122;-76
2021/12/26 12:49:51;;;;;;;6.28;4.00;;;-1.40;99.90;;;;;;4835852;29;20057;-76
2021/12/26 12:52:39;;;;;;;6.38;3.38;;;-1.40;99.90;;;;;;4826147;29;20053;-76
2021/12/26 12:55:21;;;;;;;4.85;3.65;;;-1.30;99.90;;;;;;4822088;29;20049;-76
2021/12/26 12:57:53;;;;;;;6.00;3.67;;;-1.40;99.90;;;;;;4841878;29;20049;-76
2021/12/26 13:00:25;;;;;;;7.38;3.78;;;-1.30;99.90;;;;;;4824915;29;20049;-76
2021/12/26 13:02:52;;;;;;;8.65;4.15;;;-1.30;99.90;;;;;;4820804;29;20106;-76
2021/12/26 13:05:29;;;;;;;6.13;3.75;;;-1.30;99.90;;;;;;4804799;29;20077;-76
2021/12/26 13:08:10;;;;;;;6.75;3.85;;;-1.30;99.90;;;;;;4817751;29;20478;-77
2021/12/26 13:10:36;;;;;;;6.07;3.55;;;-1.30;99.90;;;;;;4832614;29;20414;-77